sensor_id;sensor_type;location;lat;lon;timestamp;temperature;humidity
9915;DHT22;4996;48.746;9.174;2023-04-03T00:01:27;5.40;99.90
9915;DHT22;4996;48.746;9.174;2023-04-03T00:03:53;5.20;99.90
9915;DHT22;4996;48.746;9.174;2023-04-03T00:06:20;5.30;99.90
9915;DHT22;4996;48.746;9.174;2023-04-03T00:08:45;5.30;99.90
9915;DHT22;4996;48.746;9.174;2023-04-03T00:11:11;5.60;99.90
9915;DHT22;4996;48.746;9.174;2023-04-03T00:13:37;5.30;99.90
9915;DHT22;4996;48.746;9.174;2023-04-03T00:16:03;5.10;99.90
9915;DHT22;4996;48.746;9.174;2023-04-03T00:18:29;5.10;99.90
9915;DHT22;4996;48.746;9.174;2023-04-03T00:20:55;5.20;99.90
9915;DHT22;4996;48.746;9.174;2023-04-03T00:23:21;5.40;99.90
9915;DHT22;4996;48.746;9.174;2023-04-03T00:25:49;5.30;99.90
9915;DHT22;4996;48.746;9.174;2023-04-03T00:28:15;5.50;99.90
9915;DHT22;4996;48.746;9.174;2023-04-03T00:30:40;5.50;99.90
9915;DHT22;4996;48.746;9.174;2023-04-03T00:33:06;5.00;99.90
9915;DHT22;4996;48.746;9.174;2023-04-03T00:35:33;5.10;99.90
9915;DHT22;4996;48.746;9.174;2023-04-03T00:37:59;5.00;99.90
9915;DHT22;4996;48.746;9.174;2023-04-03T00:40:26;5.20;99.90
9915;DHT22;4996;48.746;9.174;2023-04-03T00:42:56;5.00;99.90
9915;DHT22;4996;48.746;9.174;2023-04-03T00:45:34;5.10;99.90
9915;DHT22;4996;48.746;9.174;2023-04-03T00:48:01;5.10;99.90
9915;DHT22;4996;48.746;9.174;2023-04-03T00:50:29;5.10;99.90
9915;DHT22;4996;48.746;9.174;2023-04-03T00:52:56;5.10;99.90
9915;DHT22;4996;48.746;9.174;2023-04-03T00:55:22;5.10;99.90
9915;DHT22;4996;48.746;9.174;2023-04-03T00:57:48;5.20;99.90
9915;DHT22;4996;48.746;9.174;2023-04-03T01:00:17;5.20;99.90
9915;DHT22;4996;48.746;9.174;2023-04-03T01:02:43;5.20;99.90
9915;DHT22;4996;48.746;9.174;2023-04-03T01:05:10;5.20;99.90
9915;DHT22;4996;48.746;9.174;2023-04-03T01:07:36;5.20;99.90
9915;DHT22;4996;48.746;9.174;2023-04-03T01:10:07;5.20;99.90
9915;DHT22;4996;48.746;9.174;2023-04-03T01:12:38;5.30;99.90
9915;DHT22;4996;48.746;9.174;2023-04-03T01:15:10;5.30;99.90
9915;DHT22;4996;48.746;9.174;2023-04-03T01:17:43;5.30;99.90
9915;DHT22;4996;48.746;9.174;2023-04-03T01:22:59;5.10;99.90
9915;DHT22;4996;48.746;9.174;2023-04-03T01:25:32;5.20;99.90
9915;DHT22;4996;48.746;9.174;2023-04-03T01:27:58;5.30;99.90
9915;DHT22;4996;48.746;9.174;2023-04-03T01:30:28;5.00;99.90
9915;DHT22;4996;48.746;9.174;2023-04-03T01:32:55;5.40;99.90
9915;DHT22;4996;48.746;9.174;2023-04-03T01:35:21;5.40;99.90
9915;DHT22;4996;48.746;9.174;2023-04-03T01:37:46;5.10;99.90
9915;DHT22;4996;48.746;9.174;2023-04-03T01:40:12;5.20;99.90
9915;DHT22;4996;48.746;9.174;2023-04-03T01:42:37;5.10;99.90
9915;DHT22;4996;48.746;9.174;2023-04-03T01:45:03;5.10;99.90
9915;DHT22;4996;48.746;9.174;2023-04-03T01:47:29;5.20;99.90
9915;DHT22;4996;48.746;9.174;2023-04-03T01:49:54;5.10;99.90
9915;DHT22;4996;48.746;9.174;2023-04-03T01:52:20;5.20;99.90
9915;DHT22;4996;48.746;9.174;2023-04-03T01:54:45;5.50;99.90
9915;DHT22;4996;48.746;9.174;2023-04-03T01:57:11;5.10;99.90
9915;DHT22;4996;48.746;9.174;2023-04-03T01:59:37;5.10;99.90
9915;DHT22;4996;48.746;9.174;2023-04-03T02:02:02;5.20;99.90
9915;DHT22;4996;48.746;9.174;2023-04-03T02:04:28;5.10;99.90
9915;DHT22;4996;48.746;9.174;2023-04-03T02:06:53;5.10;99.90
9915;DHT22;4996;48.746;9.174;2023-04-03T02:09:18;5.10;99.90
9915;DHT22;4996;48.746;9.174;2023-04-03T02:11:44;5.10;99.90
9915;DHT22;4996;48.746;9.174;2023-04-03T02:14:10;5.10;99.90
9915;DHT22;4996;48.746;9.174;2023-04-03T02:16:35;5.10;99.90
9915;DHT22;4996;48.746;9.174;2023-04-03T02:19:01;5.20;99.90
9915;DHT22;4996;48.746;9.174;2023-04-03T02:21:27;5.10;99.90
9915;DHT22;4996;48.746;9.174;2023-04-03T02:23:53;5.20;99.90
9915;DHT22;4996;48.746;9.174;2023-04-03T02:26:18;5.60;99.90
9915;DHT22;4996;48.746;9.174;2023-04-03T02:28:44;5.60;99.90
9915;DHT22;4996;48.746;9.174;2023-04-03T02:31:10;5.10;99.90
9915;DHT22;4996;48.746;9.174;2023-04-03T02:33:36;5.20;99.90
9915;DHT22;4996;48.746;9.174;2023-04-03T02:36:03;5.10;99.90
9915;DHT22;4996;48.746;9.174;2023-04-03T02:38:29;5.10;99.90
9915;DHT22;4996;48.746;9.174;2023-04-03T02:41:06;5.00;99.90
9915;DHT22;4996;48.746;9.174;2023-04-03T02:43:33;5.40;99.90
9915;DHT22;4996;48.746;9.174;2023-04-03T02:45:58;4.90;99.90
9915;DHT22;4996;48.746;9.174;2023-04-03T02:48:25;5.30;99.90
9915;DHT22;4996;48.746;9.174;2023-04-03T02:50:51;5.20;99.90
9915;DHT22;4996;48.746;9.174;2023-04-03T02:53:17;5.30;99.90
9915;DHT22;4996;48.746;9.174;2023-04-03T02:55:43;5.10;99.90
9915;DHT22;4996;48.746;9.174;2023-04-03T02:58:09;5.10;99.90
9915;DHT22;4996;48.746;9.174;2023-04-03T03:00:34;5.10;99.90
9915;DHT22;4996;48.746;9.174;2023-04-03T03:03:00;5.10;99.90
9915;DHT22;4996;48.746;9.174;2023-04-03T03:05:26;5.10;99.90
9915;DHT22;4996;48.746;9.174;2023-04-03T03:07:52;5.30;99.90
9915;DHT22;4996;48.746;9.174;2023-04-03T03:10:18;5.20;99.90
9915;DHT22;4996;48.746;9.174;2023-04-03T03:12:44;5.20;99.90
9915;DHT22;4996;48.746;9.174;2023-04-03T03:15:09;5.30;99.90
9915;DHT22;4996;48.746;9.174;2023-04-03T03:17:35;5.20;99.90
9915;DHT22;4996;48.746;9.174;2023-04-03T03:20:02;5.40;99.90
9915;DHT22;4996;48.746;9.174;2023-04-03T03:22:28;5.30;99.90
9915;DHT22;4996;48.746;9.174;2023-04-03T03:24:53;5.10;99.90
9915;DHT22;4996;48.746;9.174;2023-04-03T03:27:19;5.10;99.90
9915;DHT22;4996;48.746;9.174;2023-04-03T03:29:44;5.10;99.90
9915;DHT22;4996;48.746;9.174;2023-04-03T03:32:10;5.30;99.90
9915;DHT22;4996;48.746;9.174;2023-04-03T03:34:35;5.10;99.90
9915;DHT22;4996;48.746;9.174;2023-04-03T03:37:01;5.00;99.90
9915;DHT22;4996;48.746;9.174;2023-04-03T03:39:26;5.40;99.90
9915;DHT22;4996;48.746;9.174;2023-04-03T03:41:53;5.20;99.90
9915;DHT22;4996;48.746;9.174;2023-04-03T03:44:19;5.00;99.90
9915;DHT22;4996;48.746;9.174;2023-04-03T03:46:45;5.00;99.90
9915;DHT22;4996;48.746;9.174;2023-04-03T03:49:11;5.10;99.90
9915;DHT22;4996;48.746;9.174;2023-04-03T03:51:37;5.40;99.90
9915;DHT22;4996;48.746;9.174;2023-04-03T03:54:03;5.50;99.90
9915;DHT22;4996;48.746;9.174;2023-04-03T03:56:29;5.20;99.90
9915;DHT22;4996;48.746;9.174;2023-04-03T03:58:55;5.10;99.90
9915;DHT22;4996;48.746;9.174;2023-04-03T04:01:22;5.40;99.90
9915;DHT22;4996;48.746;9.174;2023-04-03T04:03:47;5.20;99.90
9915;DHT22;4996;48.746;9.174;2023-04-03T04:06:13;5.40;99.90
9915;DHT22;4996;48.746;9.174;2023-04-03T04:08:38;5.30;99.90
9915;DHT22;4996;48.746;9.174;2023-04-03T04:11:04;5.40;99.90
9915;DHT22;4996;48.746;9.174;2023-04-03T04:13:29;5.30;99.90
9915;DHT22;4996;48.746;9.174;2023-04-03T04:15:55;5.00;99.90
9915;DHT22;4996;48.746;9.174;2023-04-03T04:18:20;5.00;99.90
9915;DHT22;4996;48.746;9.174;2023-04-03T04:20:48;4.80;99.90
9915;DHT22;4996;48.746;9.174;2023-04-03T04:23:13;5.30;99.90
9915;DHT22;4996;48.746;9.174;2023-04-03T04:25:39;5.10;99.90
9915;DHT22;4996;48.746;9.174;2023-04-03T04:28:05;4.80;99.90
9915;DHT22;4996;48.746;9.174;2023-04-03T04:30:31;4.90;99.90
9915;DHT22;4996;48.746;9.174;2023-04-03T04:32:56;5.40;99.90
9915;DHT22;4996;48.746;9.174;2023-04-03T04:35:22;4.80;99.90
9915;DHT22;4996;48.746;9.174;2023-04-03T04:37:47;4.70;99.90
9915;DHT22;4996;48.746;9.174;2023-04-03T04:40:13;4.90;99.90
9915;DHT22;4996;48.746;9.174;2023-04-03T04:42:38;4.80;99.90
9915;DHT22;4996;48.746;9.174;2023-04-03T04:45:04;4.80;99.90
9915;DHT22;4996;48.746;9.174;2023-04-03T04:47:30;4.90;99.90
9915;DHT22;4996;48.746;9.174;2023-04-03T04:49:55;5.00;99.90
9915;DHT22;4996;48.746;9.174;2023-04-03T04:52:21;5.00;99.90
9915;DHT22;4996;48.746;9.174;2023-04-03T04:54:47;5.00;99.90
9915;DHT22;4996;48.746;9.174;2023-04-03T04:57:12;5.40;99.90
9915;DHT22;4996;48.746;9.174;2023-04-03T04:59:38;5.20;99.90
9915;DHT22;4996;48.746;9.174;2023-04-03T05:02:03;5.10;99.90
9915;DHT22;4996;48.746;9.174;2023-04-03T05:04:29;5.50;99.90
9915;DHT22;4996;48.746;9.174;2023-04-03T05:06:54;5.20;99.90
9915;DHT22;4996;48.746;9.174;2023-04-03T05:09:20;5.50;99.90
9915;DHT22;4996;48.746;9.174;2023-04-03T05:11:46;5.50;99.90
9915;DHT22;4996;48.746;9.174;2023-04-03T05:14:11;5.20;99.90
9915;DHT22;4996;48.746;9.174;2023-04-03T05:16:37;5.40;99.90
9915;DHT22;4996;48.746;9.174;2023-04-03T05:19:03;5.10;99.90
9915;DHT22;4996;48.746;9.174;2023-04-03T05:21:29;5.60;99.90
9915;DHT22;4996;48.746;9.174;2023-04-03T05:24:01;5.10;99.90
9915;DHT22;4996;48.746;9.174;2023-04-03T05:26:29;5.10;99.90
9915;DHT22;4996;48.746;9.174;2023-04-03T05:28:55;5.30;99.90
9915;DHT22;4996;48.746;9.174;2023-04-03T05:31:20;5.10;99.90
9915;DHT22;4996;48.746;9.174;2023-04-03T05:33:46;5.20;99.90
9915;DHT22;4996;48.746;9.174;2023-04-03T05:36:12;5.10;99.90
9915;DHT22;4996;48.746;9.174;2023-04-03T05:38:38;5.50;99.90
9915;DHT22;4996;48.746;9.174;2023-04-03T05:41:04;5.20;99.90
9915;DHT22;4996;48.746;9.174;2023-04-03T05:43:30;5.20;99.90
9915;DHT22;4996;48.746;9.174;2023-04-03T05:45:55;5.20;99.90
9915;DHT22;4996;48.746;9.174;2023-04-03T05:48:21;5.20;99.90
9915;DHT22;4996;48.746;9.174;2023-04-03T05:50:46;5.10;99.90
9915;DHT22;4996;48.746;9.174;2023-04-03T05:53:22;4.90;99.90
9915;DHT22;4996;48.746;9.174;2023-04-03T05:55:49;4.90;99.90
9915;DHT22;4996;48.746;9.174;2023-04-03T05:58:15;4.90;99.90
9915;DHT22;4996;48.746;9.174;2023-04-03T06:00:41;4.70;99.90
9915;DHT22;4996;48.746;9.174;2023-04-03T06:03:06;4.70;99.90
9915;DHT22;4996;48.746;9.174;2023-04-03T06:05:32;4.70;99.90
9915;DHT22;4996;48.746;9.174;2023-04-03T06:07:57;4.80;99.90
9915;DHT22;4996;48.746;9.174;2023-04-03T06:10:23;4.60;99.90
9915;DHT22;4996;48.746;9.174;2023-04-03T06:12:49;4.50;99.90
9915;DHT22;4996;48.746;9.174;2023-04-03T06:15:15;4.70;99.90
9915;DHT22;4996;48.746;9.174;2023-04-03T06:17:42;4.80;99.90
9915;DHT22;4996;48.746;9.174;2023-04-03T06:20:08;4.90;99.90
9915;DHT22;4996;48.746;9.174;2023-04-03T06:22:34;4.60;99.90
9915;DHT22;4996;48.746;9.174;2023-04-03T06:25:01;4.60;99.90
9915;DHT22;4996;48.746;9.174;2023-04-03T06:27:27;4.80;99.90
9915;DHT22;4996;48.746;9.174;2023-04-03T06:29:52;4.90;99.90
9915;DHT22;4996;48.746;9.174;2023-04-03T06:32:18;4.90;99.90
9915;DHT22;4996;48.746;9.174;2023-04-03T06:34:43;4.80;99.90
9915;DHT22;4996;48.746;9.174;2023-04-03T06:37:20;4.80;99.90
9915;DHT22;4996;48.746;9.174;2023-04-03T06:39:46;4.90;99.90
9915;DHT22;4996;48.746;9.174;2023-04-03T06:42:12;5.10;99.90
9915;DHT22;4996;48.746;9.174;2023-04-03T06:44:38;5.10;99.90
9915;DHT22;4996;48.746;9.174;2023-04-03T06:47:04;5.40;99.90
9915;DHT22;4996;48.746;9.174;2023-04-03T06:49:30;5.40;99.90
9915;DHT22;4996;48.746;9.174;2023-04-03T06:51:56;5.30;99.90
9915;DHT22;4996;48.746;9.174;2023-04-03T06:54:22;5.40;99.90
9915;DHT22;4996;48.746;9.174;2023-04-03T06:56:48;5.50;99.90
9915;DHT22;4996;48.746;9.174;2023-04-03T06:59:14;5.40;99.90
9915;DHT22;4996;48.746;9.174;2023-04-03T07:01:40;5.40;99.90
9915;DHT22;4996;48.746;9.174;2023-04-03T07:04:06;4.90;99.90
9915;DHT22;4996;48.746;9.174;2023-04-03T07:06:31;5.00;99.90
9915;DHT22;4996;48.746;9.174;2023-04-03T07:08:58;5.20;99.90
9915;DHT22;4996;48.746;9.174;2023-04-03T07:11:24;5.20;99.90
9915;DHT22;4996;48.746;9.174;2023-04-03T07:13:50;5.00;99.90
9915;DHT22;4996;48.746;9.174;2023-04-03T07:16:16;5.10;99.90
9915;DHT22;4996;48.746;9.174;2023-04-03T07:18:41;5.30;99.90
9915;DHT22;4996;48.746;9.174;2023-04-03T07:21:07;5.40;99.90
9915;DHT22;4996;48.746;9.174;2023-04-03T07:23:33;5.50;99.90
9915;DHT22;4996;48.746;9.174;2023-04-03T07:25:59;5.60;99.90
9915;DHT22;4996;48.746;9.174;2023-04-03T07:28:24;5.70;99.90
9915;DHT22;4996;48.746;9.174;2023-04-03T07:31:17;5.70;99.90
9915;DHT22;4996;48.746;9.174;2023-04-03T07:33:44;5.70;99.90
9915;DHT22;4996;48.746;9.174;2023-04-03T07:36:11;5.40;99.90
9915;DHT22;4996;48.746;9.174;2023-04-03T07:38:39;5.30;99.90
9915;DHT22;4996;48.746;9.174;2023-04-03T07:41:05;5.40;99.90
9915;DHT22;4996;48.746;9.174;2023-04-03T07:43:31;5.60;99.90
9915;DHT22;4996;48.746;9.174;2023-04-03T07:45:56;5.80;99.90
9915;DHT22;4996;48.746;9.174;2023-04-03T07:48:23;6.10;99.90
9915;DHT22;4996;48.746;9.174;2023-04-03T07:50:49;6.10;99.90
9915;DHT22;4996;48.746;9.174;2023-04-03T07:53:15;6.10;99.90
9915;DHT22;4996;48.746;9.174;2023-04-03T07:55:41;5.90;99.90
9915;DHT22;4996;48.746;9.174;2023-04-03T07:58:11;6.00;99.90
9915;DHT22;4996;48.746;9.174;2023-04-03T08:00:38;6.10;99.90
9915;DHT22;4996;48.746;9.174;2023-04-03T08:03:04;6.20;99.90
9915;DHT22;4996;48.746;9.174;2023-04-03T08:05:30;6.30;99.90
9915;DHT22;4996;48.746;9.174;2023-04-03T08:07:55;5.90;99.90
9915;DHT22;4996;48.746;9.174;2023-04-03T08:10:21;6.00;99.90
9915;DHT22;4996;48.746;9.174;2023-04-03T08:12:47;5.80;99.90
9915;DHT22;4996;48.746;9.174;2023-04-03T08:15:12;5.70;99.90
9915;DHT22;4996;48.746;9.174;2023-04-03T08:17:38;5.80;99.90
9915;DHT22;4996;48.746;9.174;2023-04-03T08:20:04;6.00;99.90
9915;DHT22;4996;48.746;9.174;2023-04-03T08:22:32;6.10;99.90
9915;DHT22;4996;48.746;9.174;2023-04-03T08:24:58;6.10;99.90
9915;DHT22;4996;48.746;9.174;2023-04-03T08:27:23;6.10;99.90
9915;DHT22;4996;48.746;9.174;2023-04-03T08:29:49;5.80;99.90
9915;DHT22;4996;48.746;9.174;2023-04-03T08:32:14;5.90;99.90
9915;DHT22;4996;48.746;9.174;2023-04-03T08:34:41;5.90;99.90
9915;DHT22;4996;48.746;9.174;2023-04-03T08:37:06;6.20;99.90
9915;DHT22;4996;48.746;9.174;2023-04-03T08:39:32;6.20;99.90
9915;DHT22;4996;48.746;9.174;2023-04-03T08:42:00;6.30;99.90
9915;DHT22;4996;48.746;9.174;2023-04-03T08:44:49;6.30;99.90
9915;DHT22;4996;48.746;9.174;2023-04-03T08:49:46;6.40;99.90
9915;DHT22;4996;48.746;9.174;2023-04-03T08:52:18;6.60;99.90
9915;DHT22;4996;48.746;9.174;2023-04-03T08:54:53;6.70;99.90
9915;DHT22;4996;48.746;9.174;2023-04-03T08:57:40;6.90;99.90
9915;DHT22;4996;48.746;9.174;2023-04-03T09:02:45;7.40;99.90
9915;DHT22;4996;48.746;9.174;2023-04-03T09:05:17;7.10;99.90
9915;DHT22;4996;48.746;9.174;2023-04-03T09:07:47;7.40;99.90
9915;DHT22;4996;48.746;9.174;2023-04-03T09:10:15;7.50;99.90
9915;DHT22;4996;48.746;9.174;2023-04-03T09:12:55;7.80;99.90
9915;DHT22;4996;48.746;9.174;2023-04-03T09:15:25;7.30;99.90
9915;DHT22;4996;48.746;9.174;2023-04-03T09:17:59;7.20;99.90
9915;DHT22;4996;48.746;9.174;2023-04-03T09:25:57;7.40;99.90
9915;DHT22;4996;48.746;9.174;2023-04-03T09:28:23;7.60;99.90
9915;DHT22;4996;48.746;9.174;2023-04-03T09:30:48;7.70;99.90
9915;DHT22;4996;48.746;9.174;2023-04-03T09:33:15;7.70;99.90
9915;DHT22;4996;48.746;9.174;2023-04-03T09:35:50;7.60;99.90
9915;DHT22;4996;48.746;9.174;2023-04-03T09:38:19;7.40;99.90
9915;DHT22;4996;48.746;9.174;2023-04-03T09:40:51;7.30;99.90
9915;DHT22;4996;48.746;9.174;2023-04-03T09:43:30;7.10;99.90
9915;DHT22;4996;48.746;9.174;2023-04-03T09:46:16;7.10;99.90
9915;DHT22;4996;48.746;9.174;2023-04-03T09:49:04;7.30;99.90
9915;DHT22;4996;48.746;9.174;2023-04-03T09:51:30;7.20;99.90
9915;DHT22;4996;48.746;9.174;2023-04-03T09:53:57;7.50;99.90
9915;DHT22;4996;48.746;9.174;2023-04-03T09:56:25;7.60;99.90
9915;DHT22;4996;48.746;9.174;2023-04-03T10:04:13;6.90;99.90
9915;DHT22;4996;48.746;9.174;2023-04-03T10:06:40;6.90;99.90
9915;DHT22;4996;48.746;9.174;2023-04-03T10:09:24;7.00;99.90
9915;DHT22;4996;48.746;9.174;2023-04-03T10:12:11;6.80;99.90
9915;DHT22;4996;48.746;9.174;2023-04-03T10:14:58;6.90;99.90
9915;DHT22;4996;48.746;9.174;2023-04-03T10:20:49;6.70;99.90
9915;DHT22;4996;48.746;9.174;2023-04-03T10:23:24;6.90;99.90
9915;DHT22;4996;48.746;9.174;2023-04-03T10:26:56;6.90;99.90
9915;DHT22;4996;48.746;9.174;2023-04-03T10:29:05;7.10;99.90
9915;DHT22;4996;48.746;9.174;2023-04-03T10:31:42;7.00;99.90
9915;DHT22;4996;48.746;9.174;2023-04-03T10:34:21;7.00;99.90
9915;DHT22;4996;48.746;9.174;2023-04-03T10:39:59;7.10;99.90
9915;DHT22;4996;48.746;9.174;2023-04-03T10:45:29;7.00;99.90
9915;DHT22;4996;48.746;9.174;2023-04-03T10:50:43;6.90;99.90
9915;DHT22;4996;48.746;9.174;2023-04-03T10:53:31;7.10;99.90
9915;DHT22;4996;48.746;9.174;2023-04-03T10:56:37;6.90;99.90
9915;DHT22;4996;48.746;9.174;2023-04-03T11:02:11;6.70;99.90
9915;DHT22;4996;48.746;9.174;2023-04-03T11:04:40;6.90;99.90
9915;DHT22;4996;48.746;9.174;2023-04-03T11:07:12;6.70;99.90
9915;DHT22;4996;48.746;9.174;2023-04-03T11:09:43;6.90;99.90
9915;DHT22;4996;48.746;9.174;2023-04-03T11:14:41;7.00;99.90
9915;DHT22;4996;48.746;9.174;2023-04-03T11:22:35;7.10;99.90
9915;DHT22;4996;48.746;9.174;2023-04-03T11:27:57;7.40;99.90
9915;DHT22;4996;48.746;9.174;2023-04-03T11:30:54;7.40;99.90
9915;DHT22;4996;48.746;9.174;2023-04-03T11:33:53;7.20;99.90
9915;DHT22;4996;48.746;9.174;2023-04-03T11:36:25;6.90;99.90
9915;DHT22;4996;48.746;9.174;2023-04-03T11:38:55;6.80;99.90
9915;DHT22;4996;48.746;9.174;2023-04-03T11:41:27;7.00;99.90
9915;DHT22;4996;48.746;9.174;2023-04-03T11:44:35;7.10;99.90
9915;DHT22;4996;48.746;9.174;2023-04-03T11:47:03;7.00;99.90
9915;DHT22;4996;48.746;9.174;2023-04-03T12:03:55;7.40;99.90
9915;DHT22;4996;48.746;9.174;2023-04-03T12:06:42;7.30;99.90
9915;DHT22;4996;48.746;9.174;2023-04-03T12:09:23;7.30;99.90
9915;DHT22;4996;48.746;9.174;2023-04-03T12:11:50;7.30;99.90
9915;DHT22;4996;48.746;9.174;2023-04-03T12:14:16;7.20;99.90
9915;DHT22;4996;48.746;9.174;2023-04-03T12:16:43;7.20;99.90
9915;DHT22;4996;48.746;9.174;2023-04-03T12:19:35;7.20;99.90
9915;DHT22;4996;48.746;9.174;2023-04-03T12:24:31;7.00;99.90
9915;DHT22;4996;48.746;9.174;2023-04-03T12:29:28;6.90;99.90
9915;DHT22;4996;48.746;9.174;2023-04-03T12:43:17;7.10;99.90
9915;DHT22;4996;48.746;9.174;2023-04-03T12:46:02;6.80;99.90
9915;DHT22;4996;48.746;9.174;2023-04-03T12:48:31;6.70;99.90
9915;DHT22;4996;48.746;9.174;2023-04-03T12:50:59;6.90;99.90
9915;DHT22;4996;48.746;9.174;2023-04-03T12:53:27;7.00;99.90
9915;DHT22;4996;48.746;9.174;2023-04-03T12:55:56;7.00;99.50
9915;DHT22;4996;48.746;9.174;2023-04-03T12:58:27;6.80;98.90
9915;DHT22;4996;48.746;9.174;2023-04-03T13:01:11;7.00;99.10
9915;DHT22;4996;48.746;9.174;2023-04-03T13:03:43;7.20;98.10
9915;DHT22;4996;48.746;9.174;2023-04-03T13:06:22;7.40;98.10
9915;DHT22;4996;48.746;9.174;2023-04-03T13:08:56;7.30;98.70
9915;DHT22;4996;48.746;9.174;2023-04-03T13:11:24;7.80;98.80
9915;DHT22;4996;48.746;9.174;2023-04-03T13:14:22;8.00;98.80
9915;DHT22;4996;48.746;9.174;2023-04-03T13:19:23;8.40;98.20
9915;DHT22;4996;48.746;9.174;2023-04-03T13:21:52;8.30;98.00
9915;DHT22;4996;48.746;9.174;2023-04-03T13:24:20;8.00;97.00
9915;DHT22;4996;48.746;9.174;2023-04-03T13:26:46;7.90;97.20
9915;DHT22;4996;48.746;9.174;2023-04-03T13:29:37;8.40;97.00
9915;DHT22;4996;48.746;9.174;2023-04-03T13:32:06;8.70;95.80
9915;DHT22;4996;48.746;9.174;2023-04-03T13:34:38;8.70;95.40
9915;DHT22;4996;48.746;9.174;2023-04-03T13:37:06;8.50;94.70
9915;DHT22;4996;48.746;9.174;2023-04-03T13:39:36;8.50;95.50
9915;DHT22;4996;48.746;9.174;2023-04-03T13:42:38;8.30;94.50
9915;DHT22;4996;48.746;9.174;2023-04-03T13:45:25;8.50;93.90
9915;DHT22;4996;48.746;9.174;2023-04-03T13:48:07;8.80;95.00
9915;DHT22;4996;48.746;9.174;2023-04-03T13:50:33;8.40;94.10
9915;DHT22;4996;48.746;9.174;2023-04-03T13:53:10;8.40;94.20
9915;DHT22;4996;48.746;9.174;2023-04-03T13:55:56;8.30;94.30
9915;DHT22;4996;48.746;9.174;2023-04-03T13:58:27;8.40;93.10
9915;DHT22;4996;48.746;9.174;2023-04-03T14:01:19;8.70;93.20
9915;DHT22;4996;48.746;9.174;2023-04-03T14:04:22;8.80;92.20
9915;DHT22;4996;48.746;9.174;2023-04-03T14:06:39;8.80;92.50
9915;DHT22;4996;48.746;9.174;2023-04-03T14:09:04;8.90;92.20
9915;DHT22;4996;48.746;9.174;2023-04-03T14:11:30;8.80;92.40
9915;DHT22;4996;48.746;9.174;2023-04-03T14:14:02;8.60;92.80
9915;DHT22;4996;48.746;9.174;2023-04-03T14:16:32;8.70;92.80
9915;DHT22;4996;48.746;9.174;2023-04-03T14:18:58;8.60;92.50
9915;DHT22;4996;48.746;9.174;2023-04-03T14:21:23;8.70;92.60
9915;DHT22;4996;48.746;9.174;2023-04-03T14:23:50;8.70;92.90
9915;DHT22;4996;48.746;9.174;2023-04-03T14:26:21;8.60;92.40
9915;DHT22;4996;48.746;9.174;2023-04-03T14:28:50;8.60;92.60
9915;DHT22;4996;48.746;9.174;2023-04-03T14:31:17;8.40;92.70
9915;DHT22;4996;48.746;9.174;2023-04-03T14:33:43;8.50;93.10
9915;DHT22;4996;48.746;9.174;2023-04-03T14:36:21;8.50;92.40
9915;DHT22;4996;48.746;9.174;2023-04-03T14:38:48;8.40;92.50
9915;DHT22;4996;48.746;9.174;2023-04-03T14:41:17;8.30;92.90
9915;DHT22;4996;48.746;9.174;2023-04-03T14:43:44;8.30;92.90
9915;DHT22;4996;48.746;9.174;2023-04-03T14:46:14;8.10;92.60
9915;DHT22;4996;48.746;9.174;2023-04-03T14:48:41;8.10;92.90
9915;DHT22;4996;48.746;9.174;2023-04-03T14:51:08;8.30;92.50
9915;DHT22;4996;48.746;9.174;2023-04-03T14:53:34;8.30;92.00
9915;DHT22;4996;48.746;9.174;2023-04-03T14:56:00;8.40;91.70
9915;DHT22;4996;48.746;9.174;2023-04-03T14:58:25;8.30;91.60
9915;DHT22;4996;48.746;9.174;2023-04-03T15:00:51;8.30;90.90
9915;DHT22;4996;48.746;9.174;2023-04-03T15:03:19;7.90;91.40
9915;DHT22;4996;48.746;9.174;2023-04-03T15:05:46;7.60;91.70
9915;DHT22;4996;48.746;9.174;2023-04-03T15:08:24;7.60;92.70
9915;DHT22;4996;48.746;9.174;2023-04-03T15:10:50;7.40;92.00
9915;DHT22;4996;48.746;9.174;2023-04-03T15:13:18;7.60;92.00
9915;DHT22;4996;48.746;9.174;2023-04-03T15:15:44;7.60;92.30
9915;DHT22;4996;48.746;9.174;2023-04-03T15:18:22;7.80;91.80
9915;DHT22;4996;48.746;9.174;2023-04-03T15:20:48;7.90;91.50
9915;DHT22;4996;48.746;9.174;2023-04-03T15:23:16;8.00;91.50
9915;DHT22;4996;48.746;9.174;2023-04-03T15:25:47;8.00;91.30
9915;DHT22;4996;48.746;9.174;2023-04-03T15:28:35;8.10;93.40
9915;DHT22;4996;48.746;9.174;2023-04-03T15:31:01;7.70;91.10
9915;DHT22;4996;48.746;9.174;2023-04-03T15:33:28;7.90;90.10
9915;DHT22;4996;48.746;9.174;2023-04-03T15:35:54;7.50;89.70
9915;DHT22;4996;48.746;9.174;2023-04-03T15:38:20;7.50;89.80
9915;DHT22;4996;48.746;9.174;2023-04-03T15:40:45;7.40;88.30
9915;DHT22;4996;48.746;9.174;2023-04-03T15:43:12;7.40;87.70
9915;DHT22;4996;48.746;9.174;2023-04-03T15:45:39;7.50;88.70
9915;DHT22;4996;48.746;9.174;2023-04-03T15:48:05;7.70;88.50
9915;DHT22;4996;48.746;9.174;2023-04-03T15:50:32;7.50;88.40
9915;DHT22;4996;48.746;9.174;2023-04-03T15:52:59;7.40;89.70
9915;DHT22;4996;48.746;9.174;2023-04-03T15:55:26;7.40;89.30
9915;DHT22;4996;48.746;9.174;2023-04-03T15:57:53;7.40;90.10
9915;DHT22;4996;48.746;9.174;2023-04-03T16:00:19;7.50;90.20
9915;DHT22;4996;48.746;9.174;2023-04-03T16:02:46;7.70;90.60
9915;DHT22;4996;48.746;9.174;2023-04-03T16:05:12;7.70;90.20
9915;DHT22;4996;48.746;9.174;2023-04-03T16:07:39;7.90;90.70
9915;DHT22;4996;48.746;9.174;2023-04-03T16:10:09;8.00;89.10
9915;DHT22;4996;48.746;9.174;2023-04-03T16:12:35;7.70;86.20
9915;DHT22;4996;48.746;9.174;2023-04-03T16:15:01;7.80;86.70
9915;DHT22;4996;48.746;9.174;2023-04-03T16:17:27;7.60;86.40
9915;DHT22;4996;48.746;9.174;2023-04-03T16:19:54;7.50;87.40
9915;DHT22;4996;48.746;9.174;2023-04-03T16:22:21;7.60;87.40
9915;DHT22;4996;48.746;9.174;2023-04-03T16:24:47;7.70;87.60
9915;DHT22;4996;48.746;9.174;2023-04-03T16:27:12;7.60;86.90
9915;DHT22;4996;48.746;9.174;2023-04-03T16:29:38;7.70;85.60
9915;DHT22;4996;48.746;9.174;2023-04-03T16:32:03;7.70;82.50
9915;DHT22;4996;48.746;9.174;2023-04-03T16:34:29;7.60;83.00
9915;DHT22;4996;48.746;9.174;2023-04-03T16:36:57;7.70;82.80
9915;DHT22;4996;48.746;9.174;2023-04-03T16:39:23;7.70;82.10
9915;DHT22;4996;48.746;9.174;2023-04-03T16:41:48;7.60;81.80
9915;DHT22;4996;48.746;9.174;2023-04-03T16:44:14;7.50;82.00
9915;DHT22;4996;48.746;9.174;2023-04-03T16:46:39;7.50;82.50
9915;DHT22;4996;48.746;9.174;2023-04-03T16:49:05;7.30;83.20
9915;DHT22;4996;48.746;9.174;2023-04-03T16:51:30;7.40;82.90
9915;DHT22;4996;48.746;9.174;2023-04-03T16:53:57;7.30;83.70
9915;DHT22;4996;48.746;9.174;2023-04-03T16:56:23;7.30;82.70
9915;DHT22;4996;48.746;9.174;2023-04-03T16:58:48;7.30;84.30
9915;DHT22;4996;48.746;9.174;2023-04-03T17:01:19;7.30;83.20
9915;DHT22;4996;48.746;9.174;2023-04-03T17:03:45;7.30;85.00
9915;DHT22;4996;48.746;9.174;2023-04-03T17:06:12;7.30;85.80
9915;DHT22;4996;48.746;9.174;2023-04-03T17:08:45;7.40;85.70
9915;DHT22;4996;48.746;9.174;2023-04-03T17:11:11;7.60;84.70
9915;DHT22;4996;48.746;9.174;2023-04-03T17:13:36;7.60;82.30
9915;DHT22;4996;48.746;9.174;2023-04-03T17:16:04;7.40;82.90
9915;DHT22;4996;48.746;9.174;2023-04-03T17:18:31;7.50;83.40
9915;DHT22;4996;48.746;9.174;2023-04-03T17:20:57;7.50;85.60
9915;DHT22;4996;48.746;9.174;2023-04-03T17:23:26;7.60;86.40
9915;DHT22;4996;48.746;9.174;2023-04-03T17:25:53;7.50;86.80
9915;DHT22;4996;48.746;9.174;2023-04-03T17:28:22;7.40;86.40
9915;DHT22;4996;48.746;9.174;2023-04-03T17:31:00;7.40;86.20
9915;DHT22;4996;48.746;9.174;2023-04-03T17:33:27;7.30;85.60
9915;DHT22;4996;48.746;9.174;2023-04-03T17:36:02;7.20;85.40
9915;DHT22;4996;48.746;9.174;2023-04-03T17:38:29;7.20;85.70
9915;DHT22;4996;48.746;9.174;2023-04-03T17:40:58;7.10;85.60
9915;DHT22;4996;48.746;9.174;2023-04-03T17:43:25;6.90;85.70
9915;DHT22;4996;48.746;9.174;2023-04-03T17:45:50;7.10;86.00